Time,TemperatureF,DewpointF,PressureIn,WindDirection,WindDirectionDegrees,WindSpeedMPH,WindSpeedGustMPH,Humidity,HourlyPrecipIn,Conditions,Clouds,dailyrainin,SoftwareType,DateUTC
2013-10-28 00:00:00,52.7,45.0,29.74,SW,232,26.5,26.5,75,0.00,CLR,,0.00,WeatherDisplay:10.37,2013-10-28 07:00:00,
2013-10-28 00:05:00,52.8,45.1,29.74,West,259,24.0,24.0,75,0.00,CLR,,0.00,WeatherDisplay:10.37,2013-10-28 07:05:00,
2013-10-28 00:10:00,52.9,44.8,29.74,SW,236,25.0,25.0,74,0.00,CLR,,0.00,WeatherDisplay:10.37,2013-10-28 07:10:00,
2013-10-28 00:15:00,52.9,44.8,29.74,WSW,242,21.9,21.9,74,0.00,CLR,,0.00,WeatherDisplay:10.37,2013-10-28 07:15:00,
2013-10-28 00:20:00,52.8,44.7,29.74,SW,226,25.3,25.3,74,0.00,CLR,,0.00,WeatherDisplay:10.37,2013-10-28 07:20:00,
2013-10-28 00:26:00,52.8,44.7,29.73,SW,225,20.7,20.7,74,0.00,CLR,,0.00,WeatherDisplay:10.37,2013-10-28 07:26:00,
2013-10-28 00:31:00,52.6,44.5,29.73,SSW,205,26.5,26.5,74,0.00,CLR,,0.00,WeatherDisplay:10.37,2013-10-28 07:31:00,
2013-10-28 00:36:00,52.6,44.5,29.73,SSW,205,26.5,26.5,74,0.00,CLR,,0.00,WeatherDisplay:10.37,2013-10-28 07:36:00,
2013-10-28 00:41:00,52.8,44.0,29.73,SW,215,24.2,24.2,72,0.00,CLR,,0.00,WeatherDisplay:10.37,2013-10-28 07:41:00,
2013-10-28 00:46:00,52.7,43.9,29.73,SSW,213,27.6,27.6,72,0.00,CLR,,0.00,WeatherDisplay:10.37,2013-10-28 07:46:00,
2013-10-28 00:51:00,52.7,43.9,29.73,SW,219,33.4,33.4,72,0.00,CLR,,0.00,WeatherDisplay:10.37,2013-10-28 07:51:00,
2013-10-28 00:56:00,52.5,44.1,29.73,SSW,202,29.9,29.9,73,0.00,CLR,,0.00,WeatherDisplay:10.37,2013-10-28 07:56:00,
2013-10-28 01:01:00,52.4,44.4,29.73,SSW,196,25.3,25.3,74,0.00,CLR,,0.00,WeatherDisplay:10.37,2013-10-28 08:01:00,
2013-10-28 01:06:00,52.3,44.3,29.73,SSW,204,28.8,28.8,74,0.00,CLR,,0.00,WeatherDisplay:10.37,2013-10-28 08:06:00,
2013-10-28 01:11:00,52.3,44.6,29.72,SSW,203,25.3,25.3,75,0.00,CLR,,0.00,WeatherDisplay:10.37,2013-10-28 08:11:00,
2013-10-28 01:17:00,52.3,44.6,29.72,SSW,213,26.5,26.5,75,0.00,CLR,,0.00,WeatherDisplay:10.37,2013-10-28 08:17:00,
2013-10-28 01:22:00,52.3,44.6,29.73,SSW,203,26.5,26.5,75,0.00,CLR,,0.00,WeatherDisplay:10.37,2013-10-28 08:22:00,
2013-10-28 01:27:00,52.3,44.6,29.72,SW,217,23.0,23.0,75,0.00,CLR,,0.00,WeatherDisplay:10.37,2013-10-28 08:27:00,
2013-10-28 01:32:00,52.3,44.6,29.72,SW,223,24.2,24.2,75,0.00,CLR,,0.00,WeatherDisplay:10.37,2013-10-28 08:32:00,
2013-10-28 01:37:00,52.4,44.7,29.72,SW,214,29.9,29.9,75,0.00,CLR,,0.00,WeatherDisplay:10.37,2013-10-28 08:37:00,
2013-10-28 01:42:00,52.4,44.7,29.72,SSW,213,29.9,29.9,75,0.00,CLR,,0.00,WeatherDisplay:10.37,2013-10-28 08:42:00,
2013-10-28 01:48:00,52.4,45.1,29.72,SW,218,26.5,26.5,76,0.00,CLR,,0.00,WeatherDisplay:10.37,2013-10-28 08:48:00,
2013-10-28 01:53:00,52.4,45.1,29.72,SW,226,29.9,29.9,76,0.00,CLR,,0.00,WeatherDisplay:10.37,2013-10-28 08:53:00,
2013-10-28 01:58:00,52.3,45.0,29.72,SW,215,29.9,29.9,76,0.00,CLR,,0.00,WeatherDisplay:10.37,2013-10-28 08:58:00,
2013-10-28 02:03:00,52.3,45.0,29.72,SW,214,28.8,28.8,76,0.00,CLR,,0.00,WeatherDisplay:10.37,2013-10-28 09:03:00,
2013-10-28 02:08:00,52.2,44.9,29.72,SW,225,27.6,27.6,76,0.00,CLR,,0.00,WeatherDisplay:10.37,2013-10-28 09:08:00,
2013-10-28 02:13:00,52.1,44.8,29.72,SW,217,23.0,23.0,76,0.00,CLR,,0.00,WeatherDisplay:10.37,2013-10-28 09:13:00,
2013-10-28 02:18:00,52.1,44.8,29.72,SW,232,28.8,28.8,76,0.00,CLR,,0.00,WeatherDisplay:10.37,2013-10-28 09:18:00,
2013-10-28 02:23:00,51.9,44.6,29.72,SSW,202,19.6,19.6,76,0.00,CLR,,0.00,WeatherDisplay:10.37,2013-10-28 09:23:00,
2013-10-28 02:28:00,51.8,44.5,29.72,SW,227,23.0,23.0,76,0.00,CLR,,0.00,WeatherDisplay:10.37,2013-10-28 09:28:00,
2013-10-28 02:33:00,51.7,44.4,29.72,SW,214,19.6,19.6,76,0.00,CLR,,0.00,WeatherDisplay:10.37,2013-10-28 09:33:00,
2013-10-28 02:38:00,51.5,44.5,29.72,SW,215,24.2,24.2,77,0.00,CLR,,0.00,WeatherDisplay:10.37,2013-10-28 09:38:00,
2013-10-28 02:43:00,51.4,44.4,29.72,SW,225,23.0,23.0,77,0.00,CLR,,0.00,WeatherDisplay:10.37,2013-10-28 09:43:00,
2013-10-28 02:48:00,51.3,44.3,29.72,WSW,240,26.5,26.5,77,0.00,CLR,,0.00,WeatherDisplay:10.37,2013-10-28 09:48:00,
2013-10-28 02:53:00,51.2,44.2,29.72,SSW,210,27.6,27.6,77,0.00,CLR,,0.00,WeatherDisplay:10.37,2013-10-28 09:53:00,
2013-10-28 02:58:00,51.1,44.1,29.72,WSW,238,21.9,21.9,77,0.00,CLR,,0.00,WeatherDisplay:10.37,2013-10-28 09:58:00,
2013-10-28 03:03:00,50.9,43.9,29.72,SW,221,21.9,21.9,77,0.00,CLR,,0.00,WeatherDisplay:10.37,2013-10-28 10:03:00,
2013-10-28 03:08:00,50.7,44.1,29.72,SW,223,25.3,25.3,78,0.00,CLR,,0.00,WeatherDisplay:10.37,2013-10-28 10:08:00,
2013-10-28 03:13:00,50.6,44.0,29.72,SW,226,21.0,21.0,78,0.00,CLR,,0.00,WeatherDisplay:10.37,2013-10-28 10:13:00,
2013-10-28 03:19:00,50.6,44.0,29.72,SW,232,25.3,25.3,78,0.00,CLR,,0.00,WeatherDisplay:10.37,2013-10-28 10:19:00,
2013-10-28 03:24:00,50.7,43.8,29.72,WSW,238,20.7,20.7,77,0.00,CLR,,0.00,WeatherDisplay:10.37,2013-10-28 10:24:00,
2013-10-28 03:29:00,50.6,43.3,29.71,SW,221,19.6,19.6,76,0.00,CLR,,0.00,WeatherDisplay:10.37,2013-10-28 10:29:00,
2013-10-28 03:34:00,50.6,43.3,29.71,SSW,208,19.6,19.6,76,0.00,CLR,,0.00,WeatherDisplay:10.37,2013-10-28 10:34:00,
2013-10-28 03:39:00,50.8,42.8,29.71,WSW,237,19.6,19.6,74,0.00,CLR,,0.00,WeatherDisplay:10.37,2013-10-28 10:39:00,
2013-10-28 03:44:00,51.1,42.7,29.72,West,261,20.7,20.7,73,0.00,CLR,,0.00,WeatherDisplay:10.37,2013-10-28 10:44:00,
2013-10-28 03:49:00,51.3,42.6,29.72,SW,224,25.3,25.3,72,0.00,CLR,,0.00,WeatherDisplay:10.37,2013-10-28 10:49:00,
2013-10-28 03:54:00,51.2,42.5,29.72,WSW,252,21.9,21.9,72,0.00,CLR,,0.00,WeatherDisplay:10.37,2013-10-28 10:54:00,
2013-10-28 04:00:00,51.0,42.3,29.73,WSW,257,19.6,19.6,72,0.00,CLR,,0.00,WeatherDisplay:10.37,2013-10-28 11:00:00,
2013-10-28 04:05:00,50.7,42.0,29.73,WSW,257,15.0,15.0,72,0.00,CLR,,0.00,WeatherDisplay:10.37,2013-10-28 11:05:00,
2013-10-28 04:10:00,50.8,42.1,29.73,West,261,18.0,18.0,72,0.00,CLR,,0.00,WeatherDisplay:10.37,2013-10-28 11:10:00,
2013-10-28 04:15:00,50.9,42.2,29.73,WSW,248,17.3,17.3,72,0.00,CLR,,0.00,WeatherDisplay:10.37,2013-10-28 11:15:00,
2013-10-28 04:20:00,50.9,42.2,29.73,WSW,249,18.4,18.4,72,0.00,CLR,,0.00,WeatherDisplay:10.37,2013-10-28 11:20:00,
2013-10-28 04:25:00,50.8,42.1,29.73,SW,226,20.7,20.7,72,0.00,CLR,,0.00,WeatherDisplay:10.37,2013-10-28 11:25:00,
2013-10-28 04:30:00,50.7,42.0,29.73,WSW,253,13.8,13.8,72,0.00,CLR,,0.00,WeatherDisplay:10.37,2013-10-28 11:30:00,
2013-10-28 04:35:00,50.6,41.9,29.73,WSW,253,19.6,19.6,72,0.00,CLR,,0.00,WeatherDisplay:10.37,2013-10-28 11:35:00,
2013-10-28 04:40:00,50.6,41.5,29.73,SSW,210,19.6,19.6,71,0.00,CLR,,0.00,WeatherDisplay:10.37,2013-10-28 11:40:00,
2013-10-28 04:45:00,50.6,41.5,29.73,WSW,240,12.7,12.7,71,0.00,CLR,,0.00,WeatherDisplay:10.37,2013-10-28 11:45:00,
2013-10-28 04:50:00,50.4,37.9,29.73,WSW,254,15.0,15.0,62,0.00,CLR,,0.00,WeatherDisplay:10.37,2013-10-28 11:50:00,
2013-10-28 04:56:00,50.4,35.7,29.74,SW,219,17.3,17.3,57,0.00,CLR,,0.00,WeatherDisplay:10.37,2013-10-28 11:56:00,
2013-10-28 05:01:00,50.3,35.2,29.74,West,261,17.3,17.3,56,0.00,CLR,,0.00,WeatherDisplay:10.37,2013-10-28 12:01:00,
2013-10-28 05:06:00,50.1,35.0,29.74,SSW,209,13.8,13.8,56,0.00,CLR,,0.00,WeatherDisplay:10.37,2013-10-28 12:06:00,
2013-10-28 05:11:00,49.9,34.8,29.74,SW,227,16.1,16.1,56,0.00,CLR,,0.00,WeatherDisplay:10.37,2013-10-28 12:11:00,
2013-10-28 05:16:00,49.9,34.8,29.74,WSW,254,15.0,15.0,56,0.00,CLR,,0.00,WeatherDisplay:10.37,2013-10-28 12:16:00,
2013-10-28 05:21:00,49.8,35.2,29.74,WSW,246,13.8,13.8,57,0.00,CLR,,0.00,WeatherDisplay:10.37,2013-10-28 12:21:00,
2013-10-28 05:26:00,49.9,35.7,29.74,WSW,254,13.8,13.8,58,0.00,CLR,,0.00,WeatherDisplay:10.37,2013-10-28 12:26:00,
2013-10-28 05:31:00,50.0,36.2,29.74,WSW,256,11.5,11.5,59,0.00,CLR,,0.00,WeatherDisplay:10.37,2013-10-28 12:31:00,
2013-10-28 05:36:00,49.9,36.1,29.74,SSW,196,16.1,16.1,59,0.00,CLR,,0.00,WeatherDisplay:10.37,2013-10-28 12:36:00,
2013-10-28 05:42:00,49.9,35.7,29.74,West,261,13.8,13.8,58,0.00,CLR,,0.00,WeatherDisplay:10.37,2013-10-28 12:42:00,
2013-10-28 05:47:00,49.8,36.0,29.74,SSW,202,16.1,16.1,59,0.00,CLR,,0.00,WeatherDisplay:10.37,2013-10-28 12:47:00,
2013-10-28 05:52:00,49.9,36.6,29.74,SSW,194,16.1,16.1,60,0.00,CLR,,0.00,WeatherDisplay:10.37,2013-10-28 12:52:00,
2013-10-28 05:57:00,50.0,37.1,29.74,SSW,206,19.6,19.6,61,0.00,CLR,,0.00,WeatherDisplay:10.37,2013-10-28 12:57:00,
2013-10-28 06:02:00,50.1,38.8,29.74,SW,233,21.9,21.9,65,0.00,CLR,,0.00,WeatherDisplay:10.37,2013-10-28 13:02:00,
2013-10-28 06:07:00,50.1,39.9,29.74,SSW,213,19.6,19.6,68,0.00,CLR,,0.00,WeatherDisplay:10.37,2013-10-28 13:07:00,
2013-10-28 06:12:00,50.0,40.6,29.75,WSW,248,18.0,18.0,70,0.00,CLR,,0.00,WeatherDisplay:10.37,2013-10-28 13:12:00,
2013-10-28 06:17:00,49.7,40.7,29.75,SSW,200,19.6,19.6,71,0.00,CLR,,0.00,WeatherDisplay:10.37,2013-10-28 13:17:00,
2013-10-28 06:22:00,49.4,40.7,29.75,SSW,210,23.0,23.0,72,0.00,CLR,,0.00,WeatherDisplay:10.37,2013-10-28 13:22:00,
2013-10-28 06:28:00,49.0,40.7,29.75,SSW,213,21.0,21.0,73,0.00,CLR,,0.00,WeatherDisplay:10.37,2013-10-28 13:28:00,
2013-10-28 06:33:00,48.6,40.7,29.75,SW,221,21.9,21.9,74,0.00,CLR,,0.00,WeatherDisplay:10.37,2013-10-28 13:33:00,
2013-10-28 06:38:00,48.5,40.6,29.75,WSW,241,17.3,17.3,74,0.00,CLR,,0.00,WeatherDisplay:10.37,2013-10-28 13:38:00,
2013-10-28 06:43:00,48.2,40.3,29.75,SW,235,19.6,19.6,74,0.00,CLR,,0.00,WeatherDisplay:10.37,2013-10-28 13:43:00,
2013-10-28 06:48:00,48.1,40.2,29.75,SW,225,18.4,18.4,74,0.00,CLR,,0.00,WeatherDisplay:10.37,2013-10-28 13:48:00,
2013-10-28 06:53:00,48.1,40.2,29.76,SSW,213,19.6,19.6,74,0.00,CLR,,0.00,WeatherDisplay:10.37,2013-10-28 13:53:00,
2013-10-28 06:58:00,48.0,39.8,29.76,SSW,205,12.7,12.7,73,0.00,CLR,,0.00,WeatherDisplay:10.37,2013-10-28 13:58:00,
2013-10-28 07:03:00,47.9,39.3,29.76,SW,223,11.5,11.5,72,0.00,CLR,,0.00,WeatherDisplay:10.37,2013-10-28 14:03:00,
2013-10-28 07:08:00,47.8,39.2,29.76,SW,221,12.7,12.7,72,0.00,CLR,,0.00,WeatherDisplay:10.37,2013-10-28 14:08:00,
2013-10-28 07:13:00,47.7,39.5,29.76,WSW,238,13.0,13.0,73,0.00,CLR,,0.00,WeatherDisplay:10.37,2013-10-28 14:13:00,
2013-10-28 07:18:00,47.6,39.4,29.77,SW,222,10.4,10.4,73,0.00,CLR,,0.00,WeatherDisplay:10.37,2013-10-28 14:18:00,
2013-10-28 07:23:00,47.4,39.2,29.77,WSW,240,16.1,16.1,73,0.00,CLR,,0.00,WeatherDisplay:10.37,2013-10-28 14:23:00,
2013-10-28 07:28:00,47.4,38.8,29.77,SW,224,13.0,13.0,72,0.00,CLR,,0.00,WeatherDisplay:10.37,2013-10-28 14:28:00,
2013-10-28 07:33:00,47.4,38.8,29.77,SW,227,15.0,15.0,72,0.00,CLR,,0.00,WeatherDisplay:10.37,2013-10-28 14:33:00,
2013-10-28 07:38:00,47.4,38.8,29.77,WSW,250,15.0,15.0,72,0.00,CLR,,0.00,WeatherDisplay:10.37,2013-10-28 14:38:00,
2013-10-28 07:43:00,47.6,39.0,29.78,SW,221,19.6,19.6,72,0.00,CLR,,0.00,WeatherDisplay:10.37,2013-10-28 14:43:00,
2013-10-28 07:48:00,47.8,39.2,29.78,SW,216,16.1,16.1,72,0.00,CLR,,0.00,WeatherDisplay:10.37,2013-10-28 14:48:00,
2013-10-28 07:53:00,48.1,39.5,29.79,WSW,240,19.6,19.6,72,0.00,CLR,,0.00,WeatherDisplay:10.37,2013-10-28 14:53:00,
2013-10-28 07:59:00,48.2,39.6,29.79,SSW,202,23.0,23.0,72,0.00,CLR,,0.00,WeatherDisplay:10.37,2013-10-28 14:59:00,
2013-10-28 08:04:00,48.2,39.2,29.79,SW,223,17.3,17.3,71,0.00,CLR,,0.00,WeatherDisplay:10.37,2013-10-28 15:04:00,
2013-10-28 08:09:00,48.3,39.3,29.80,SW,220,19.6,19.6,71,0.00,CLR,,0.00,WeatherDisplay:10.37,2013-10-28 15:09:00,
2013-10-28 08:14:00,48.5,39.5,29.80,SW,217,16.1,16.1,71,0.00,CLR,,0.00,WeatherDisplay:10.37,2013-10-28 15:14:00,
2013-10-28 08:19:00,48.7,39.4,29.80,SSW,203,18.0,18.0,70,0.00,CLR,,0.00,WeatherDisplay:10.37,2013-10-28 15:19:00,
2013-10-28 08:24:00,48.8,39.4,29.80,SW,215,19.6,19.6,70,0.00,CLR,,0.00,WeatherDisplay:10.37,2013-10-28 15:24:00,
2013-10-28 08:29:00,49.0,39.3,29.80,SW,219,16.1,16.1,69,0.00,CLR,,0.00,WeatherDisplay:10.37,2013-10-28 15:29:00,
2013-10-28 08:35:00,49.0,38.9,29.80,SW,230,18.4,18.4,68,0.00,CLR,,0.00,WeatherDisplay:10.37,2013-10-28 15:35:00,
2013-10-28 08:40:00,49.3,38.8,29.80,SW,230,17.3,17.3,67,0.00,CLR,,0.00,WeatherDisplay:10.37,2013-10-28 15:40:00,
2013-10-28 08:45:00,49.9,39.0,29.80,SSW,193,15.0,15.0,66,0.00,CLR,,0.00,WeatherDisplay:10.37,2013-10-28 15:45:00,
2013-10-28 08:50:00,50.4,38.7,29.81,SW,232,18.4,18.4,64,0.00,CLR,,0.00,WeatherDisplay:10.37,2013-10-28 15:50:00,
2013-10-28 08:55:00,50.6,38.9,29.81,SW,223,19.6,19.6,64,0.00,CLR,,0.00,WeatherDisplay:10.37,2013-10-28 15:55:00,
2013-10-28 09:00:00,50.8,38.7,29.81,SW,226,19.6,19.6,63,0.00,CLR,,0.00,WeatherDisplay:10.37,2013-10-28 16:00:00,
2013-10-28 09:05:00,51.1,38.9,29.81,SSW,207,15.0,15.0,63,0.00,CLR,,0.00,WeatherDisplay:10.37,2013-10-28 16:05:00,
2013-10-28 09:10:00,50.9,38.3,29.81,SW,236,19.6,19.6,62,0.00,CLR,,0.00,WeatherDisplay:10.37,2013-10-28 16:10:00,
2013-10-28 09:15:00,51.0,38.4,29.82,SW,219,18.4,18.4,62,0.00,CLR,,0.00,WeatherDisplay:10.37,2013-10-28 16:15:00,
2013-10-28 09:21:00,50.8,37.8,29.81,SW,228,21.9,21.9,61,0.00,CLR,,0.00,WeatherDisplay:10.37,2013-10-28 16:21:00,
2013-10-28 09:26:00,51.0,38.0,29.81,SW,227,17.3,17.3,61,0.00,CLR,,0.00,WeatherDisplay:10.37,2013-10-28 16:26:00,
2013-10-28 09:31:00,51.8,38.3,29.82,SW,215,20.0,20.0,60,0.00,CLR,,0.00,WeatherDisplay:10.37,2013-10-28 16:31:00,
2013-10-28 09:36:00,51.9,37.6,29.82,SW,219,19.6,19.6,58,0.00,CLR,,0.00,WeatherDisplay:10.37,2013-10-28 16:36:00,
2013-10-28 09:41:00,52.3,38.0,29.82,SSW,205,20.0,20.0,58,0.00,CLR,,0.00,WeatherDisplay:10.37,2013-10-28 16:41:00,
2013-10-28 09:46:00,52.4,37.2,29.81,SSW,211,19.6,19.6,56,0.00,CLR,,0.00,WeatherDisplay:10.37,2013-10-28 16:46:00,
2013-10-28 09:51:00,52.7,37.0,29.82,SW,225,19.6,19.6,55,0.00,CLR,,0.00,WeatherDisplay:10.37,2013-10-28 16:51:00,
2013-10-28 09:57:00,52.9,36.7,29.82,SSW,202,19.6,19.6,54,0.00,CLR,,0.00,WeatherDisplay:10.37,2013-10-28 16:57:00,
2013-10-28 10:02:00,53.3,36.6,29.82,SW,218,23.0,23.0,53,0.00,CLR,,0.00,WeatherDisplay:10.37,2013-10-28 17:02:00,
2013-10-28 10:07:00,53.7,37.0,29.82,SW,232,22.0,22.0,53,0.00,CLR,,0.00,WeatherDisplay:10.37,2013-10-28 17:07:00,
2013-10-28 10:12:00,53.6,37.3,29.82,SW,229,25.3,25.3,54,0.00,CLR,,0.00,WeatherDisplay:10.37,2013-10-28 17:12:00,
2013-10-28 10:17:00,53.3,37.5,29.82,WSW,248,25.3,25.3,55,0.00,CLR,,0.00,WeatherDisplay:10.37,2013-10-28 17:17:00,
2013-10-28 10:22:00,53.9,38.1,29.82,WSW,258,20.7,20.7,55,0.00,CLR,,0.00,WeatherDisplay:10.37,2013-10-28 17:22:00,
2013-10-28 10:27:00,54.0,36.8,29.82,SSW,209,23.0,23.0,52,0.00,CLR,,0.00,WeatherDisplay:10.37,2013-10-28 17:27:00,
2013-10-28 10:32:00,54.1,36.9,29.82,SW,219,26.5,26.5,52,0.00,CLR,,0.00,WeatherDisplay:10.37,2013-10-28 17:32:00,
2013-10-28 10:37:00,53.9,37.1,29.82,WSW,253,21.9,21.9,53,0.00,CLR,,0.00,WeatherDisplay:10.37,2013-10-28 17:37:00,
2013-10-28 10:42:00,53.6,36.4,29.82,WSW,244,23.0,23.0,52,0.00,CLR,,0.00,WeatherDisplay:10.37,2013-10-28 17:42:00,
2013-10-28 10:47:00,53.4,36.2,29.82,WSW,242,24.2,24.2,52,0.00,CLR,,0.00,WeatherDisplay:10.37,2013-10-28 17:47:00,
2013-10-28 10:52:00,53.8,37.1,29.82,SW,230,16.1,16.1,53,0.00,CLR,,0.00,WeatherDisplay:10.37,2013-10-28 17:52:00,
2013-10-28 10:57:00,54.4,37.1,29.82,SW,222,23.0,23.0,52,0.00,CLR,,0.00,WeatherDisplay:10.37,2013-10-28 17:57:00,
2013-10-28 11:02:00,55.1,36.8,29.82,SW,234,27.0,27.0,50,0.00,CLR,,0.00,WeatherDisplay:10.37,2013-10-28 18:02:00,
2013-10-28 11:08:00,54.7,36.9,29.82,SW,215,23.0,23.0,51,0.00,CLR,,0.00,WeatherDisplay:10.37,2013-10-28 18:08:00,
2013-10-28 11:13:00,55.2,37.4,29.82,SSW,204,25.3,25.3,51,0.00,CLR,,0.00,WeatherDisplay:10.37,2013-10-28 18:13:00,
2013-10-28 11:18:00,55.4,37.1,29.82,SW,223,25.3,25.3,50,0.00,CLR,,0.00,WeatherDisplay:10.37,2013-10-28 18:18:00,
2013-10-28 11:23:00,55.9,37.0,29.82,SSW,206,21.9,21.9,49,0.00,CLR,,0.00,WeatherDisplay:10.37,2013-10-28 18:23:00,
2013-10-28 11:28:00,55.9,37.5,29.82,SW,223,21.9,21.9,50,0.00,CLR,,0.00,WeatherDisplay:10.37,2013-10-28 18:28:00,
2013-10-28 11:34:00,56.5,37.6,29.82,SW,225,27.0,27.0,49,0.00,CLR,,0.00,WeatherDisplay:10.37,2013-10-28 18:34:00,
2013-10-28 11:39:00,56.7,37.2,29.81,SW,219,25.3,25.3,48,0.00,CLR,,0.00,WeatherDisplay:10.37,2013-10-28 18:39:00,
2013-10-28 11:44:00,56.7,37.7,29.81,SW,223,26.5,26.5,49,0.00,CLR,,0.00,WeatherDisplay:10.37,2013-10-28 18:44:00,
2013-10-28 11:49:00,56.6,37.1,29.81,SSW,204,32.2,32.2,48,0.00,CLR,,0.00,WeatherDisplay:10.37,2013-10-28 18:49:00,
2013-10-28 11:54:00,56.7,36.1,29.81,WSW,242,24.2,24.2,46,0.00,CLR,,0.00,WeatherDisplay:10.37,2013-10-28 18:54:00,
2013-10-28 11:59:00,56.5,37.0,29.81,SW,215,21.9,21.9,48,0.00,CLR,,0.00,WeatherDisplay:10.37,2013-10-28 18:59:00,
2013-10-28 12:04:00,56.4,36.4,29.81,South,187,25.3,25.3,47,0.00,CLR,,0.00,WeatherDisplay:10.37,2013-10-28 19:04:00,
2013-10-28 12:09:00,56.4,36.9,29.80,SW,227,19.6,19.6,48,0.00,CLR,,0.00,WeatherDisplay:10.37,2013-10-28 19:09:00,
2013-10-28 12:14:00,56.3,36.8,29.80,SSW,209,23.0,23.0,48,0.00,CLR,,0.00,WeatherDisplay:10.37,2013-10-28 19:14:00,
2013-10-28 12:19:00,56.3,36.3,29.80,WSW,248,24.2,24.2,47,0.00,CLR,,0.00,WeatherDisplay:10.37,2013-10-28 19:19:00,
2013-10-28 12:24:00,56.4,35.3,29.80,SW,215,25.3,25.3,45,0.00,CLR,,0.00,WeatherDisplay:10.37,2013-10-28 19:24:00,
2013-10-28 12:29:00,56.9,35.8,29.80,SSW,203,20.7,20.7,45,0.00,CLR,,0.00,WeatherDisplay:10.37,2013-10-28 19:29:00,
2013-10-28 12:35:00,56.5,34.8,29.80,SSW,200,26.5,26.5,44,0.00,CLR,,0.00,WeatherDisplay:10.37,2013-10-28 19:35:00,
2013-10-28 12:40:00,56.3,35.8,29.80,WSW,237,26.5,26.5,46,0.00,CLR,,0.00,WeatherDisplay:10.37,2013-10-28 19:40:00,
2013-10-28 12:45:00,56.4,35.9,29.80,WSW,239,26.5,26.5,46,0.00,CLR,,0.00,WeatherDisplay:10.37,2013-10-28 19:45:00,
2013-10-28 12:50:00,57.1,35.4,29.79,WSW,250,19.6,19.6,44,0.00,CLR,,0.00,WeatherDisplay:10.37,2013-10-28 19:50:00,
2013-10-28 12:55:00,57.6,35.8,29.79,SW,234,23.0,23.0,44,0.00,CLR,,0.00,WeatherDisplay:10.37,2013-10-28 19:55:00,
2013-10-28 13:00:00,58.1,35.7,29.78,SW,217,25.0,25.0,43,0.00,CLR,,0.00,WeatherDisplay:10.37,2013-10-28 20:00:00,
2013-10-28 13:05:00,58.4,35.4,29.78,SW,223,29.9,29.9,42,0.00,CLR,,0.00,WeatherDisplay:10.37,2013-10-28 20:05:00,
2013-10-28 13:11:00,59.0,35.3,29.78,SSW,198,28.8,28.8,41,0.00,CLR,,0.00,WeatherDisplay:10.37,2013-10-28 20:11:00,
2013-10-28 13:16:00,59.0,35.3,29.78,SSW,211,19.6,19.6,41,0.00,CLR,,0.00,WeatherDisplay:10.37,2013-10-28 20:16:00,
2013-10-28 13:21:00,59.6,35.2,29.77,SW,225,28.8,28.8,40,0.00,CLR,,0.00,WeatherDisplay:10.37,2013-10-28 20:21:00,
2013-10-28 13:26:00,59.0,34.7,29.77,WSW,250,25.0,25.0,40,0.00,CLR,,0.00,WeatherDisplay:10.37,2013-10-28 20:26:00,
2013-10-28 13:31:00,59.0,34.7,29.77,SSW,194,28.8,28.8,40,0.00,CLR,,0.00,WeatherDisplay:10.37,2013-10-28 20:31:00,
2013-10-28 13:36:00,59.3,35.0,29.77,SSW,211,24.2,24.2,40,0.00,CLR,,0.00,WeatherDisplay:10.37,2013-10-28 20:36:00,
2013-10-28 13:41:00,59.0,34.7,29.77,SW,217,26.5,26.5,40,0.00,CLR,,0.00,WeatherDisplay:10.37,2013-10-28 20:41:00,
2013-10-28 13:46:00,59.0,34.7,29.77,SW,218,23.0,23.0,40,0.00,CLR,,0.00,WeatherDisplay:10.37,2013-10-28 20:46:00,
2013-10-28 13:52:00,58.3,34.1,29.77,WSW,250,24.2,24.2,40,0.00,CLR,,0.00,WeatherDisplay:10.37,2013-10-28 20:52:00,
2013-10-28 13:57:00,57.8,34.2,29.77,SSW,203,24.2,24.2,41,0.00,CLR,,0.00,WeatherDisplay:10.37,2013-10-28 20:57:00,
2013-10-28 14:02:00,58.0,33.8,29.77,SSW,201,23.0,23.0,40,0.00,CLR,,0.00,WeatherDisplay:10.37,2013-10-28 21:02:00,
2013-10-28 14:07:00,57.5,34.0,29.77,WSW,242,26.5,26.5,41,0.00,CLR,,0.00,WeatherDisplay:10.37,2013-10-28 21:07:00,
2013-10-28 14:12:00,57.6,34.1,29.77,SW,217,26.5,26.5,41,0.00,CLR,,0.00,WeatherDisplay:10.37,2013-10-28 21:12:00,
2013-10-28 14:17:00,57.6,34.7,29.77,SW,236,24.2,24.2,42,0.00,CLR,,0.00,WeatherDisplay:10.37,2013-10-28 21:17:00,
2013-10-28 14:23:00,57.0,34.1,29.77,SSW,211,27.6,27.6,42,0.00,CLR,,0.00,WeatherDisplay:10.37,2013-10-28 21:23:00,
2013-10-28 14:28:00,56.0,37.1,29.77,SSW,213,27.6,27.6,49,0.00,CLR,,0.00,WeatherDisplay:10.37,2013-10-28 21:28:00,
2013-10-28 14:33:00,56.0,36.6,29.77,SSW,205,24.2,24.2,48,0.00,CLR,,0.00,WeatherDisplay:10.37,2013-10-28 21:33:00,
2013-10-28 14:38:00,56.2,36.2,29.77,SSW,209,27.6,27.6,47,0.00,CLR,,0.00,WeatherDisplay:10.37,2013-10-28 21:38:00,
2013-10-28 14:44:00,55.9,35.9,29.77,SW,223,29.9,29.9,47,0.00,CLR,,0.00,WeatherDisplay:10.37,2013-10-28 21:44:00,
2013-10-28 14:49:00,55.2,36.4,29.77,SW,215,27.6,27.6,49,0.00,CLR,,0.00,WeatherDisplay:10.37,2013-10-28 21:49:00,
2013-10-28 14:54:00,55.4,36.5,29.77,SW,217,32.2,32.2,49,0.00,CLR,,0.00,WeatherDisplay:10.37,2013-10-28 21:54:00,
2013-10-28 14:59:00,56.4,36.4,29.77,SW,217,29.9,29.9,47,0.00,CLR,,0.00,WeatherDisplay:10.37,2013-10-28 21:59:00,
2013-10-28 15:04:00,57.1,37.0,29.77,South,190,24.2,24.2,47,0.00,CLR,,0.00,WeatherDisplay:10.37,2013-10-28 22:04:00,
2013-10-28 15:09:00,56.9,36.3,29.77,SSW,205,26.5,26.5,46,0.00,CLR,,0.00,WeatherDisplay:10.37,2013-10-28 22:09:00,
2013-10-28 15:14:00,57.1,36.5,29.77,WSW,242,28.8,28.8,46,0.00,CLR,,0.00,WeatherDisplay:10.37,2013-10-28 22:14:00,
2013-10-28 15:19:00,56.0,37.1,29.77,SW,225,23.0,23.0,49,0.00,CLR,,0.00,WeatherDisplay:10.37,2013-10-28 22:19:00,
2013-10-28 15:25:00,55.2,39.3,29.77,SSW,194,21.9,21.9,55,0.00,CLR,,0.00,WeatherDisplay:10.37,2013-10-28 22:25:00,
2013-10-28 15:30:00,54.5,37.7,29.78,SW,224,21.9,21.9,53,0.00,CLR,,0.00,WeatherDisplay:10.37,2013-10-28 22:30:00,
2013-10-28 15:35:00,54.1,39.2,29.78,South,188,19.6,19.6,57,0.00,CLR,,0.00,WeatherDisplay:10.37,2013-10-28 22:35:00,
2013-10-28 15:40:00,53.7,38.8,29.78,SSW,211,28.0,28.0,57,0.00,CLR,,0.00,WeatherDisplay:10.37,2013-10-28 22:40:00,
2013-10-28 15:45:00,53.2,39.2,29.78,SSW,205,23.0,23.0,59,0.00,CLR,,0.00,WeatherDisplay:10.37,2013-10-28 22:45:00,
2013-10-28 15:50:00,53.5,39.1,29.78,SSW,213,21.9,21.9,58,0.00,CLR,,0.00,WeatherDisplay:10.37,2013-10-28 22:50:00,
2013-10-28 15:55:00,53.7,38.4,29.78,South,188,23.0,23.0,56,0.00,CLR,,0.00,WeatherDisplay:10.37,2013-10-28 22:55:00,
2013-10-28 16:00:00,54.1,37.3,29.78,SSW,206,26.5,26.5,53,0.00,CLR,,0.00,WeatherDisplay:10.37,2013-10-28 23:00:00,
2013-10-28 16:05:00,54.7,37.9,29.78,SW,226,26.5,26.5,53,0.00,CLR,,0.00,WeatherDisplay:10.37,2013-10-28 23:05:00,
2013-10-28 16:10:00,55.3,37.5,29.78,SSW,195,25.3,25.3,51,0.00,CLR,,0.00,WeatherDisplay:10.37,2013-10-28 23:10:00,
2013-10-28 16:16:00,55.0,37.2,29.78,SW,220,23.0,23.0,51,0.00,CLR,,0.00,WeatherDisplay:10.37,2013-10-28 23:16:00,
2013-10-28 16:21:00,54.3,37.5,29.78,WSW,252,25.3,25.3,53,0.00,CLR,,0.00,WeatherDisplay:10.37,2013-10-28 23:21:00,
2013-10-28 16:26:00,54.4,38.1,29.78,South,188,25.3,25.3,54,0.00,CLR,,0.00,WeatherDisplay:10.37,2013-10-28 23:26:00,
2013-10-28 16:31:00,54.5,38.2,29.78,South,182,24.2,24.2,54,0.00,CLR,,0.00,WeatherDisplay:10.37,2013-10-28 23:31:00,
2013-10-28 16:36:00,54.1,37.8,29.78,SSW,213,25.3,25.3,54,0.00,CLR,,0.00,WeatherDisplay:10.37,2013-10-28 23:36:00,
2013-10-28 16:41:00,54.0,38.2,29.79,SSW,198,19.6,19.6,55,0.00,CLR,,0.00,WeatherDisplay:10.37,2013-10-28 23:41:00,
2013-10-28 16:47:00,53.9,37.1,29.79,South,188,24.2,24.2,53,0.00,CLR,,0.00,WeatherDisplay:10.37,2013-10-28 23:47:00,
2013-10-28 16:52:00,53.9,37.1,29.79,South,190,24.2,24.2,53,0.00,CLR,,0.00,WeatherDisplay:10.37,2013-10-28 23:52:00,
2013-10-28 16:57:00,53.4,37.2,29.79,SSW,199,24.2,24.2,54,0.00,CLR,,0.00,WeatherDisplay:10.37,2013-10-28 23:57:00,
2013-10-28 17:02:00,53.0,36.8,29.79,SW,219,28.8,28.8,54,0.00,CLR,,0.00,WeatherDisplay:10.37,2013-10-29 00:02:00,
2013-10-28 17:07:00,53.0,37.3,29.79,SSW,211,26.5,26.5,55,0.00,CLR,,0.00,WeatherDisplay:10.37,2013-10-29 00:07:00,
2013-10-28 17:12:00,52.9,37.6,29.79,SSW,213,21.9,21.9,56,0.00,CLR,,0.00,WeatherDisplay:10.37,2013-10-29 00:12:00,
2013-10-28 17:17:00,52.8,37.5,29.79,SSW,213,21.9,21.9,56,0.00,CLR,,0.00,WeatherDisplay:10.37,2013-10-29 00:17:00,
2013-10-28 17:22:00,52.3,37.5,29.80,SSW,208,26.5,26.5,57,0.00,CLR,,0.00,WeatherDisplay:10.37,2013-10-29 00:22:00,
2013-10-28 17:27:00,52.0,37.7,29.80,South,183,25.3,25.3,58,0.00,CLR,,0.00,WeatherDisplay:10.37,2013-10-29 00:27:00,
2013-10-28 17:32:00,52.0,37.2,29.80,SSW,207,23.0,23.0,57,0.00,CLR,,0.00,WeatherDisplay:10.37,2013-10-29 00:32:00,
2013-10-28 17:37:00,52.0,37.2,29.80,SSW,195,19.6,19.6,57,0.00,CLR,,0.00,WeatherDisplay:10.37,2013-10-29 00:37:00,
2013-10-28 17:42:00,51.9,37.1,29.80,South,185,23.0,23.0,57,0.00,CLR,,0.00,WeatherDisplay:10.37,2013-10-29 00:42:00,
2013-10-28 17:47:00,51.7,37.4,29.80,SSW,209,22.0,22.0,58,0.00,CLR,,0.00,WeatherDisplay:10.37,2013-10-29 00:47:00,
2013-10-28 17:52:00,51.4,37.5,29.80,SSW,212,19.6,19.6,59,0.00,CLR,,0.00,WeatherDisplay:10.37,2013-10-29 00:52:00,
2013-10-28 17:58:00,51.3,37.4,29.80,SSW,194,20.7,20.7,59,0.00,CLR,,0.00,WeatherDisplay:10.37,2013-10-29 00:58:00,
2013-10-28 18:03:00,51.2,37.4,29.81,SW,219,25.3,25.3,59,0.00,CLR,,0.00,WeatherDisplay:10.37,2013-10-29 01:03:00,
2013-10-28 18:08:00,51.1,37.7,29.81,SW,222,19.6,19.6,60,0.00,CLR,,0.00,WeatherDisplay:10.37,2013-10-29 01:08:00,
2013-10-28 18:13:00,51.0,38.0,29.81,SW,236,21.9,21.9,61,0.00,CLR,,0.00,WeatherDisplay:10.37,2013-10-29 01:13:00,
2013-10-28 18:18:00,50.9,37.9,29.81,South,175,20.7,20.7,61,0.00,CLR,,0.00,WeatherDisplay:10.37,2013-10-29 01:18:00,
2013-10-28 18:23:00,50.6,38.1,29.81,SW,221,26.5,26.5,62,0.00,CLR,,0.00,WeatherDisplay:10.37,2013-10-29 01:23:00,
2013-10-28 18:28:00,50.4,38.3,29.82,SW,231,24.2,24.2,63,0.00,CLR,,0.00,WeatherDisplay:10.37,2013-10-29 01:28:00,
2013-10-28 18:33:00,50.2,38.5,29.82,SW,215,24.0,24.0,64,0.00,CLR,,0.00,WeatherDisplay:10.37,2013-10-29 01:33:00,
2013-10-28 18:38:00,49.7,38.4,29.82,SSW,200,23.0,23.0,65,0.00,CLR,,0.00,WeatherDisplay:10.37,2013-10-29 01:38:00,
2013-10-28 18:44:00,49.4,38.9,29.82,South,188,23.0,23.0,67,0.00,CLR,,0.00,WeatherDisplay:10.37,2013-10-29 01:44:00,
2013-10-28 18:49:00,49.2,39.1,29.82,SW,225,16.1,16.1,68,0.00,CLR,,0.00,WeatherDisplay:10.37,2013-10-29 01:49:00,
2013-10-28 18:54:00,49.2,39.1,29.83,WSW,243,19.6,19.6,68,0.00,CLR,,0.00,WeatherDisplay:10.37,2013-10-29 01:54:00,
2013-10-28 18:59:00,49.2,39.1,29.83,SSW,207,17.3,17.3,68,0.00,CLR,,0.00,WeatherDisplay:10.37,2013-10-29 01:59:00,
2013-10-28 19:04:00,49.4,39.3,29.83,SW,215,19.6,19.6,68,0.00,CLR,,0.00,WeatherDisplay:10.37,2013-10-29 02:04:00,
2013-10-28 19:09:00,49.2,39.8,29.83,SW,219,20.7,20.7,70,0.00,CLR,,0.00,WeatherDisplay:10.37,2013-10-29 02:09:00,
2013-10-28 19:14:00,48.5,39.9,29.83,SW,216,20.7,20.7,72,0.00,CLR,,0.00,WeatherDisplay:10.37,2013-10-29 02:14:00,
2013-10-28 19:19:00,48.1,40.5,29.83,SW,216,18.4,18.4,75,0.00,CLR,,0.00,WeatherDisplay:10.37,2013-10-29 02:19:00,
2013-10-28 19:24:00,47.9,40.4,29.83,SW,230,19.6,19.6,75,0.00,CLR,,0.00,WeatherDisplay:10.37,2013-10-29 02:24:00,
2013-10-28 19:29:00,47.9,40.4,29.83,SSW,202,21.0,21.0,75,0.00,CLR,,0.00,WeatherDisplay:10.37,2013-10-29 02:29:00,
2013-10-28 19:34:00,48.1,40.2,29.83,SW,223,27.6,27.6,74,0.00,CLR,,0.00,WeatherDisplay:10.37,2013-10-29 02:34:00,
2013-10-28 19:39:00,48.1,39.9,29.83,SW,220,25.3,25.3,73,0.00,CLR,,0.00,WeatherDisplay:10.37,2013-10-29 02:39:00,
2013-10-28 19:44:00,47.8,39.9,29.84,SSW,207,19.6,19.6,74,0.00,CLR,,0.00,WeatherDisplay:10.37,2013-10-29 02:44:00,
2013-10-28 19:49:00,47.6,40.1,29.84,SW,221,20.7,20.7,75,0.00,CLR,,0.00,WeatherDisplay:10.37,2013-10-29 02:49:00,
2013-10-28 19:54:00,47.4,39.9,29.83,SSW,209,24.2,24.2,75,0.00,CLR,,0.00,WeatherDisplay:10.37,2013-10-29 02:54:00,
2013-10-28 19:59:00,47.2,40.0,29.83,SW,229,19.6,19.6,76,0.00,CLR,,0.00,WeatherDisplay:10.37,2013-10-29 02:59:00,
2013-10-28 20:05:00,47.2,40.0,29.84,WSW,242,18.4,18.4,76,0.00,CLR,,0.00,WeatherDisplay:10.37,2013-10-29 03:05:00,
2013-10-28 20:10:00,47.3,40.1,29.84,WSW,238,18.4,18.4,76,0.00,CLR,,0.00,WeatherDisplay:10.37,2013-10-29 03:10:00,
2013-10-28 20:15:00,47.2,40.0,29.84,SSW,194,19.6,19.6,76,0.00,CLR,,0.00,WeatherDisplay:10.37,2013-10-29 03:15:00,
2013-10-28 20:20:00,47.2,40.0,29.84,SSW,205,17.3,17.3,76,0.00,CLR,,0.00,WeatherDisplay:10.37,2013-10-29 03:20:00,
2013-10-28 20:25:00,47.1,40.3,29.84,SSW,213,17.3,17.3,77,0.00,CLR,,0.00,WeatherDisplay:10.37,2013-10-29 03:25:00,
2013-10-28 20:30:00,47.2,40.4,29.84,SSW,196,19.6,19.6,77,0.00,CLR,,0.00,WeatherDisplay:10.37,2013-10-29 03:30:00,
2013-10-28 20:35:00,47.2,40.4,29.84,SSW,202,18.4,18.4,77,0.00,CLR,,0.00,WeatherDisplay:10.37,2013-10-29 03:35:00,
2013-10-28 20:40:00,47.3,40.5,29.84,WSW,253,19.6,19.6,77,0.00,CLR,,0.00,WeatherDisplay:10.37,2013-10-29 03:40:00,
2013-10-28 20:45:00,47.3,40.5,29.84,SW,226,19.6,19.6,77,0.00,CLR,,0.00,WeatherDisplay:10.37,2013-10-29 03:45:00,
2013-10-28 20:50:00,47.4,40.9,29.84,WSW,246,18.4,18.4,78,0.00,CLR,,0.00,WeatherDisplay:10.37,2013-10-29 03:50:00,
2013-10-28 20:55:00,47.6,40.7,29.84,SW,215,19.6,19.6,77,0.00,CLR,,0.00,WeatherDisplay:10.37,2013-10-29 03:55:00,
2013-10-28 21:00:00,47.7,40.8,29.84,SW,214,18.0,18.0,77,0.00,CLR,,0.00,WeatherDisplay:10.37,2013-10-29 04:00:00,
2013-10-28 21:01:00,47.7,40.8,29.85,SW,227,18.4,18.4,77,0.00,CLR,,0.00,WeatherDisplay:10.37,2013-10-29 04:01:00,
2013-10-28 21:02:00,47.7,40.8,29.85,SW,232,18.4,18.4,77,0.00,CLR,,0.00,WeatherDisplay:10.37,2013-10-29 04:02:00,
2013-10-28 21:03:00,47.7,40.8,29.85,SSW,202,16.1,16.1,77,0.00,CLR,,0.00,WeatherDisplay:10.37,2013-10-29 04:03:00,
2013-10-28 21:08:00,47.7,40.8,29.85,SW,214,19.6,19.6,77,0.00,CLR,,0.00,WeatherDisplay:10.37,2013-10-29 04:08:00,
2013-10-28 21:13:00,47.8,40.9,29.86,SSW,206,15.0,15.0,77,0.00,CLR,,0.00,WeatherDisplay:10.37,2013-10-29 04:13:00,
2013-10-28 21:18:00,47.7,40.5,29.86,SSW,212,17.3,17.3,76,0.00,CLR,,0.00,WeatherDisplay:10.37,2013-10-29 04:18:00,
2013-10-28 21:23:00,47.8,40.6,29.86,SW,221,13.8,13.8,76,0.00,CLR,,0.00,WeatherDisplay:10.37,2013-10-29 04:23:00,
2013-10-28 21:28:00,47.7,40.5,29.86,WSW,251,15.0,15.0,76,0.00,CLR,,0.00,WeatherDisplay:10.37,2013-10-29 04:28:00,
2013-10-28 21:33:00,47.7,40.8,29.86,SW,215,13.8,13.8,77,0.00,CLR,,0.00,WeatherDisplay:10.37,2013-10-29 04:33:00,
2013-10-28 21:38:00,47.6,40.7,29.86,SW,226,13.8,13.8,77,0.00,CLR,,0.00,WeatherDisplay:10.37,2013-10-29 04:38:00,
2013-10-28 21:44:00,47.4,40.9,29.86,WSW,238,17.3,17.3,78,0.00,CLR,,0.00,WeatherDisplay:10.37,2013-10-29 04:44:00,
2013-10-28 21:49:00,47.3,40.8,29.86,SSW,211,12.7,12.7,78,0.00,CLR,,0.00,WeatherDisplay:10.37,2013-10-29 04:49:00,
2013-10-28 21:54:00,47.2,41.0,29.87,SSW,213,15.0,15.0,79,0.00,CLR,,0.00,WeatherDisplay:10.37,2013-10-29 04:54:00,
2013-10-28 21:59:00,47.0,40.8,29.87,SW,232,17.3,17.3,79,0.01,RA,,0.01,WeatherDisplay:10.37,2013-10-29 04:59:00,
2013-10-28 22:04:00,46.9,40.7,29.87,SW,217,15.0,15.0,79,0.01,RA,,0.01,WeatherDisplay:10.37,2013-10-29 05:04:00,
2013-10-28 22:09:00,46.9,40.7,29.87,SSW,202,18.4,18.4,79,0.01,CLR,,0.01,WeatherDisplay:10.37,2013-10-29 05:09:00,
2013-10-28 22:14:00,47.1,40.9,29.88,WSW,242,12.7,12.7,79,0.01,CLR,,0.01,WeatherDisplay:10.37,2013-10-29 05:14:00,
2013-10-28 22:19:00,47.2,41.0,29.88,SW,218,14.0,14.0,79,0.01,CLR,,0.01,WeatherDisplay:10.37,2013-10-29 05:19:00,
2013-10-28 22:24:00,47.3,41.1,29.88,SSW,202,15.0,15.0,79,0.01,CLR,,0.01,WeatherDisplay:10.37,2013-10-29 05:24:00,
2013-10-28 22:29:00,47.6,41.4,29.88,SSW,193,19.6,19.6,79,0.01,CLR,,0.01,WeatherDisplay:10.37,2013-10-29 05:29:00,
2013-10-28 22:34:00,47.6,41.1,29.88,South,180,16.1,16.1,78,0.01,CLR,,0.01,WeatherDisplay:10.37,2013-10-29 05:34:00,
2013-10-28 22:39:00,47.5,41.3,29.89,SSW,213,13.8,13.8,79,0.01,CLR,,0.01,WeatherDisplay:10.37,2013-10-29 05:39:00,
2013-10-28 22:45:00,47.5,41.3,29.89,SW,226,10.4,10.4,79,0.01,CLR,,0.02,WeatherDisplay:10.37,2013-10-29 05:45:00,
2013-10-28 22:50:00,47.4,41.2,29.89,SW,229,6.9,6.9,79,0.02,RA,,0.02,WeatherDisplay:10.37,2013-10-29 05:50:00,
2013-10-28 22:55:00,47.2,41.3,29.89,SW,229,9.2,9.2,80,0.02,RA,,0.02,WeatherDisplay:10.37,2013-10-29 05:55:00,
2013-10-28 23:07:00,47.2,41.7,29.89,SW,214,6.0,6.0,81,0.02,RA,,0.03,WeatherDisplay:10.37,2013-10-29 06:07:00,
2013-10-28 23:12:00,47.2,41.7,29.89,SW,215,10.4,10.4,81,0.02,RA,,0.03,WeatherDisplay:10.37,2013-10-29 06:12:00,
2013-10-28 23:18:00,47.1,41.2,29.89,SW,222,9.2,9.2,80,0.02,,,0.03,WeatherDisplay:10.37,2013-10-29 06:18:00,
2013-10-28 23:23:00,47.1,41.2,29.89,SW,234,11.5,11.5,80,0.02,CLR,,0.03,WeatherDisplay:10.37,2013-10-29 06:23:00,
2013-10-28 23:28:00,47.1,41.2,29.89,SW,232,13.0,13.0,80,0.02,CLR,,0.03,WeatherDisplay:10.37,2013-10-29 06:28:00,
2013-10-28 23:33:00,47.2,41.3,29.89,WSW,241,13.8,13.8,80,0.02,CLR,,0.03,WeatherDisplay:10.37,2013-10-29 06:33:00,
2013-10-28 23:38:00,47.3,41.1,29.90,SSW,205,14.0,14.0,79,0.02,CLR,,0.03,WeatherDisplay:10.37,2013-10-29 06:38:00,
2013-10-28 23:43:00,47.4,41.2,29.90,SSW,200,13.8,13.8,79,0.02,CLR,,0.03,WeatherDisplay:10.37,2013-10-29 06:43:00,
2013-10-28 23:48:00,47.2,41.0,29.90,SW,222,14.0,14.0,79,0.02,CLR,,0.03,WeatherDisplay:10.37,2013-10-29 06:48:00,
2013-10-28 23:54:00,47.3,41.1,29.90,SSW,206,12.7,12.7,79,0.01,CLR,,0.03,WeatherDisplay:10.37,2013-10-29 06:54:00,
2013-10-28 23:59:00,47.3,41.1,29.90,SW,214,11.5,11.5,79,0.01,CLR,,0.03,WeatherDisplay:10.37,2013-10-29 06:59:00,